Time;durP1;ratioP1;P1;durP2;ratioP2;P2;SDS_P1;SDS_P2;PMS_P1;PMS_P2;Temp;Humidity;BMP_temperature;BMP_pressure;BME280_temperature;BME280_humidity;BME280_pressure;Samples;Min_cycle;Max_cycle;Signal;HPM_P1;HPM_P2
2022/06/27 00:01:45;;;;;;;5.35;3.05;;;18.00;99.90;;;;;;6225878;22;20020;-92
2022/06/27 00:04:11;;;;;;;5.68;3.15;;;17.90;99.90;;;;;;6225802;22;20095;-92
2022/06/27 00:06:37;;;;;;;5.38;2.80;;;17.90;99.90;;;;;;6225561;22;20019;-90
2022/06/27 00:09:03;;;;;;;5.93;3.05;;;17.80;99.90;;;;;;6225707;22;20075;-92
2022/06/27 00:11:29;;;;;;;6.15;3.10;;;17.90;99.90;;;;;;6225910;22;20015;-90
2022/06/27 00:13:54;;;;;;;5.57;3.38;;;17.90;99.90;;;;;;6226553;22;20038;-91
2022/06/27 00:16:20;;;;;;;6.93;2.92;;;17.90;99.90;;;;;;6225826;22;20019;-91
2022/06/27 00:18:46;;;;;;;5.43;3.08;;;17.90;99.90;;;;;;6225890;22;20042;-90
2022/06/27 00:21:12;;;;;;;6.63;3.50;;;17.80;99.90;;;;;;6225524;22;20012;-90
2022/06/27 00:24:13;;;;;;;6.53;3.28;;;17.80;99.90;;;;;;6225456;22;20026;-92
2022/06/27 00:57:37;;;;;;;6.13;3.58;;;17.30;99.90;;;;;;6262094;22;20448;-90
2022/06/27 01:00:12;;;;;;;6.13;3.65;;;17.30;99.90;;;;;;6222132;23;20026;-93
2022/06/27 01:02:58;;;;;;;5.90;3.17;;;17.40;99.90;;;;;;6219972;23;20476;-93
2022/06/27 01:05:24;;;;;;;6.00;3.13;;;17.40;99.90;;;;;;6219596;23;20016;-92
2022/06/27 01:08:09;;;;;;;6.55;3.80;;;17.50;99.90;;;;;;6220780;23;20095;-93
2022/06/27 01:11:06;;;;;;;6.00;3.40;;;17.50;99.90;;;;;;6220666;23;20060;-92
2022/06/27 01:13:50;;;;;;;6.03;3.55;;;17.50;99.90;;;;;;6223811;23;20095;-93
2022/06/27 01:17:07;;;;;;;7.00;3.97;;;17.60;99.90;;;;;;6223417;23;20441;-96
2022/06/27 03:26:13;;;;;;;8.45;4.53;;;17.10;99.90;;;;;;6255116;22;20027;-95
2022/06/27 03:29:35;;;;;;;7.82;4.60;;;17.00;99.90;;;;;;6204545;23;20031;-93
2022/06/27 03:32:05;;;;;;;8.68;4.88;;;17.00;99.90;;;;;;6258853;23;20086;-93
2022/06/27 03:34:59;;;;;;;7.47;4.80;;;17.00;99.90;;;;;;6233430;23;20020;-92
2022/06/27 03:37:42;;;;;;;7.90;4.18;;;17.00;99.90;;;;;;6235253;23;20043;-91
2022/06/27 03:40:09;;;;;;;8.10;4.53;;;17.10;99.90;;;;;;6232903;23;20019;-91
2022/06/27 03:42:53;;;;;;;7.70;4.00;;;17.10;99.90;;;;;;6257039;23;20023;-89
2022/06/27 03:45:21;;;;;;;7.38;4.25;;;17.10;99.90;;;;;;6226869;23;20102;-92
2022/06/27 03:47:53;;;;;;;7.85;4.78;;;17.10;99.90;;;;;;6197993;23;20021;-92
2022/06/27 03:50:22;;;;;;;6.72;3.80;;;17.10;99.90;;;;;;6197362;23;20044;-95
2022/06/27 03:52:49;;;;;;;7.10;4.07;;;17.00;99.90;;;;;;6196460;23;20022;-90
2022/06/27 03:55:16;;;;;;;8.10;4.45;;;17.00;99.90;;;;;;6196364;23;20012;-93
2022/06/27 03:57:53;;;;;;;8.30;4.13;;;17.10;99.90;;;;;;6196065;23;20154;-95
2022/06/27 04:00:29;;;;;;;7.68;4.28;;;17.10;99.90;;;;;;6198812;23;20027;-92
2022/06/27 04:03:36;;;;;;;7.50;4.30;;;17.20;99.90;;;;;;6227375;23;20467;-95
2022/06/27 04:21:29;;;;;;;6.90;3.83;;;17.20;99.90;;;;;;6251526;22;20024;-91
2022/06/27 04:23:55;;;;;;;6.13;3.50;;;17.20;99.90;;;;;;6223879;23;20107;-93
2022/06/27 04:26:21;;;;;;;7.05;3.63;;;17.10;99.90;;;;;;6224185;23;20082;-92
2022/06/27 04:28:47;;;;;;;6.63;3.78;;;17.10;99.90;;;;;;6222051;23;20008;-92
2022/06/27 04:31:18;;;;;;;;;;;17.10;99.90;;;;;;6221185;23;20031;-94
2022/06/27 04:33:44;;;;;;;5.60;2.88;;;17.10;99.90;;;;;;6220947;23;20222;-91
2022/06/27 04:36:11;;;;;;;6.55;3.35;;;17.10;99.90;;;;;;6222510;23;20027;-91
2022/06/27 04:38:38;;;;;;;5.75;3.25;;;17.10;99.90;;;;;;6222871;23;20070;-96
2022/06/27 04:41:03;;;;;;;5.32;2.47;;;17.10;99.90;;;;;;6220798;23;20020;-92
2022/06/27 04:43:29;;;;;;;4.65;2.30;;;17.10;99.90;;;;;;6220714;23;20027;-92
2022/06/27 04:45:58;;;;;;;3.88;1.90;;;17.10;99.90;;;;;;6220859;23;20016;-95
2022/06/27 04:48:31;;;;;;;4.32;2.25;;;17.20;99.90;;;;;;6231144;23;20064;-91
2022/06/27 04:50:59;;;;;;;4.55;2.45;;;17.10;99.90;;;;;;6226427;23;20337;-93
2022/06/27 04:53:59;;;;;;;4.25;2.22;;;17.20;99.90;;;;;;6220068;23;20012;-92
2022/06/27 04:56:25;;;;;;;4.03;2.20;;;17.20;99.90;;;;;;6218872;23;20323;-90
2022/06/27 04:58:54;;;;;;;4.03;2.20;;;17.30;99.90;;;;;;6219939;23;20012;-89
2022/06/27 05:01:20;;;;;;;3.88;2.17;;;17.20;99.90;;;;;;6219826;23;20020;-89
2022/06/27 05:03:46;;;;;;;3.97;1.70;;;17.30;99.90;;;;;;6219980;23;20345;-92
2022/06/27 05:06:12;;;;;;;4.32;1.90;;;17.20;99.90;;;;;;6247503;23;20023;-92
2022/06/27 05:08:38;;;;;;;4.53;1.95;;;17.30;99.90;;;;;;6247348;22;20028;-89
2022/06/27 05:11:05;;;;;;;3.80;1.85;;;17.30;99.90;;;;;;6231443;23;20012;-92
2022/06/27 05:13:33;;;;;;;3.70;1.83;;;17.20;99.90;;;;;;6246086;23;20024;-94
2022/06/27 05:16:01;;;;;;;3.08;1.60;;;17.20;99.90;;;;;;6220118;23;20019;-91
2022/06/27 05:18:35;;;;;;;3.80;1.70;;;17.20;99.90;;;;;;6220845;23;20018;-94
2022/06/27 05:21:01;;;;;;;3.90;2.00;;;17.20;99.90;;;;;;6219730;23;20020;-95
2022/06/27 05:26:15;;;;;;;3.15;1.73;;;17.20;99.90;;;;;;6246473;22;20020;-90
2022/06/27 05:28:43;;;;;;;3.83;1.92;;;17.20;99.90;;;;;;6220220;23;20024;-95
2022/06/27 05:31:12;;;;;;;2.72;1.35;;;17.20;99.90;;;;;;6219723;23;20071;-94
2022/06/27 05:33:38;;;;;;;2.78;1.40;;;17.30;99.90;;;;;;6244756;23;20074;-90
2022/06/27 05:36:05;;;;;;;4.05;1.55;;;17.30;99.90;;;;;;6219342;23;20016;-92
2022/06/27 05:42:32;;;;;;;2.58;1.30;;;17.30;99.90;;;;;;6246692;23;20027;-94
2022/06/27 05:44:58;;;;;;;3.78;1.40;;;17.40;99.90;;;;;;6229346;23;20322;-88
2022/06/27 05:47:25;;;;;;;3.72;1.60;;;17.40;99.90;;;;;;6257424;23;20027;-95
2022/06/27 05:49:51;;;;;;;2.22;1.13;;;17.40;99.90;;;;;;6245351;23;20023;-91
2022/06/27 05:52:17;;;;;;;3.58;1.70;;;17.40;99.90;;;;;;6219379;23;20016;-91
2022/06/27 05:54:44;;;;;;;3.10;1.60;;;17.50;99.90;;;;;;6245186;23;20047;-94
2022/06/27 05:57:11;;;;;;;;;;;17.50;99.90;;;;;;6245561;23;20012;-90
2022/06/27 05:59:37;;;;;;;2.78;1.40;;;17.50;99.90;;;;;;6243431;23;19916;-91
2022/06/27 06:02:04;;;;;;;2.10;1.08;;;17.50;99.90;;;;;;6244847;23;20023;-90
2022/06/27 06:04:30;;;;;;;2.95;1.50;;;17.50;99.90;;;;;;6219738;23;20016;-90
2022/06/27 06:06:55;;;;;;;;;;;17.50;99.90;;;;;;6245489;23;20024;-93
2022/06/27 06:09:21;;;;;;;2.97;1.42;;;17.50;99.90;;;;;;6270896;22;20435;-90
2022/06/27 06:11:48;;;;;;;2.90;1.30;;;17.50;99.90;;;;;;6219489;23;20051;-89
2022/06/27 06:14:19;;;;;;;3.17;1.45;;;17.50;99.90;;;;;;6244748;23;20023;-89
2022/06/27 06:16:46;;;;;;;3.28;1.70;;;17.50;99.90;;;;;;6245212;23;20019;-91
2022/06/27 06:19:12;;;;;;;2.20;1.23;;;17.60;99.90;;;;;;6244982;23;20008;-90
2022/06/27 06:21:38;;;;;;;2.30;1.38;;;17.60;99.90;;;;;;6244611;23;20078;-89
2022/06/27 06:24:05;;;;;;;3.25;1.35;;;17.50;99.90;;;;;;6244442;23;20020;-89
2022/06/27 06:26:30;;;;;;;3.38;1.40;;;17.60;99.90;;;;;;6224098;22;20016;-90
2022/06/27 06:28:58;;;;;;;3.58;1.48;;;17.60;99.90;;;;;;6275000;22;20034;-89
2022/06/27 06:31:24;;;;;;;3.90;1.50;;;17.60;99.90;;;;;;6226151;22;20011;-91
2022/06/27 06:33:54;;;;;;;3.40;1.60;;;17.60;99.90;;;;;;6226157;22;20105;-89
2022/06/27 06:36:21;;;;;;;2.38;1.13;;;17.60;99.90;;;;;;6225989;22;20012;-93
2022/06/27 06:38:50;;;;;;;3.33;1.60;;;17.60;99.90;;;;;;6251301;22;20047;-90
2022/06/27 06:41:16;;;;;;;3.45;1.50;;;17.60;99.90;;;;;;6225967;22;20027;-90
2022/06/27 06:43:42;;;;;;;3.35;1.83;;;17.60;99.90;;;;;;6226128;22;20019;-90
2022/06/27 06:46:09;;;;;;;4.47;1.88;;;17.60;99.90;;;;;;6225903;22;20020;-90
2022/06/27 06:48:37;;;;;;;4.28;2.00;;;17.60;99.90;;;;;;6253246;22;20019;-91
2022/06/27 06:51:05;;;;;;;3.80;1.73;;;17.60;99.90;;;;;;6255298;22;20042;-95
2022/06/27 06:53:31;;;;;;;3.67;1.60;;;17.70;99.90;;;;;;6227574;22;20011;-90
2022/06/27 06:55:57;;;;;;;3.10;1.50;;;17.70;99.90;;;;;;6227170;22;20015;-91
2022/06/27 06:58:28;;;;;;;3.55;1.77;;;17.70;99.90;;;;;;6227822;22;20445;-92
2022/06/27 07:00:54;;;;;;;4.32;1.75;;;17.70;99.90;;;;;;6227750;22;20026;-89
2022/06/27 07:03:20;;;;;;;3.95;1.90;;;17.70;99.90;;;;;;6226598;22;20026;-91
2022/06/27 07:05:47;;;;;;;3.28;1.83;;;17.70;99.90;;;;;;6229804;22;20016;-90
2022/06/27 07:08:16;;;;;;;3.88;1.90;;;17.70;99.90;;;;;;6254597;22;20448;-89
2022/06/27 07:10:42;;;;;;;6.50;2.15;;;17.70;99.90;;;;;;6228622;22;20012;-93
2022/06/27 07:13:08;;;;;;;2.92;1.50;;;17.70;99.90;;;;;;6228580;22;20081;-92
2022/06/27 07:15:34;;;;;;;3.42;1.88;;;17.70;99.90;;;;;;6252827;22;20337;-90
2022/06/27 07:18:02;;;;;;;3.97;1.90;;;17.70;99.90;;;;;;6202773;22;20023;-90
2022/06/27 07:20:30;;;;;;;3.53;1.50;;;17.70;99.90;;;;;;6225406;22;20487;-91
2022/06/27 07:22:56;;;;;;;4.85;1.88;;;17.80;99.90;;;;;;6252149;22;20023;-92
2022/06/27 07:25:22;;;;;;;4.32;2.20;;;17.80;99.90;;;;;;6221162;23;20016;-89
2022/06/27 07:27:48;;;;;;;3.60;1.80;;;17.80;99.90;;;;;;6247039;23;20020;-92
2022/06/27 07:30:14;;;;;;;;;;;17.80;99.90;;;;;;6223395;23;20019;-92
2022/06/27 07:32:42;;;;;;;3.25;1.63;;;17.80;99.90;;;;;;6222734;23;19915;-89
2022/06/27 07:35:11;;;;;;;4.00;2.08;;;17.80;99.90;;;;;;6222132;23;20078;-93
2022/06/27 07:37:49;;;;;;;4.22;1.75;;;17.80;99.90;;;;;;6221467;23;20110;-90
2022/06/27 07:40:17;;;;;;;4.10;1.70;;;17.80;99.90;;;;;;6223071;23;20410;-94
2022/06/27 07:42:47;;;;;;;3.47;1.88;;;17.80;99.90;;;;;;6248541;23;20020;-93
2022/06/27 07:45:14;;;;;;;3.35;1.60;;;17.80;99.90;;;;;;6223379;23;20020;-95
2022/06/27 07:47:42;;;;;;;3.20;1.65;;;17.80;99.90;;;;;;6221897;23;20082;-90
2022/06/27 07:50:09;;;;;;;3.42;1.70;;;17.80;99.90;;;;;;6222285;23;20404;-89
2022/06/27 07:55:24;;;;;;;;;;;17.80;99.90;;;;;;6275098;22;20022;-94
2022/06/27 07:57:52;;;;;;;3.67;1.70;;;17.80;99.90;;;;;;6250046;23;19916;-91
2022/06/27 08:00:19;;;;;;;3.80;1.55;;;17.80;99.90;;;;;;6232512;23;20472;-94
2022/06/27 08:02:45;;;;;;;3.28;1.73;;;17.80;99.90;;;;;;6246887;22;20016;-90
2022/06/27 08:05:11;;;;;;;2.85;1.42;;;17.80;99.90;;;;;;6245889;23;20020;-89
2022/06/27 08:07:37;;;;;;;2.83;1.50;;;17.80;99.90;;;;;;6245692;23;20027;-91
2022/06/27 08:10:09;;;;;;;3.25;1.60;;;17.80;99.90;;;;;;6249013;23;20026;-93
2022/06/27 08:12:36;;;;;;;3.50;1.70;;;17.90;99.90;;;;;;6224528;23;20041;-91
2022/06/27 08:15:02;;;;;;;2.72;1.40;;;17.90;99.90;;;;;;6226120;23;20020;-91
2022/06/27 08:17:30;;;;;;;2.72;1.42;;;17.90;99.90;;;;;;6223559;23;20016;-90
2022/06/27 08:19:59;;;;;;;3.25;1.40;;;17.90;99.90;;;;;;6224478;23;20027;-92
2022/06/27 08:22:25;;;;;;;2.83;1.33;;;17.90;99.90;;;;;;6221505;23;20016;-90
2022/06/27 08:24:51;;;;;;;3.00;1.40;;;17.80;99.90;;;;;;6222063;22;20042;-92
2022/06/27 08:27:17;;;;;;;;;;;17.80;99.90;;;;;;6254360;22;20031;-91
2022/06/27 08:29:43;;;;;;;2.60;1.30;;;17.80;99.90;;;;;;6251439;22;20244;-90
2022/06/27 08:32:09;;;;;;;2.90;1.40;;;17.80;99.90;;;;;;6225190;22;20016;-90
2022/06/27 08:34:36;;;;;;;2.70;1.55;;;17.80;99.90;;;;;;6226359;22;20015;-89
2022/06/27 08:37:02;;;;;;;3.47;1.65;;;17.80;99.90;;;;;;6246020;22;20027;-88
2022/06/27 08:39:28;;;;;;;3.38;1.70;;;17.80;99.90;;;;;;6234542;22;20065;-92
2022/06/27 08:41:55;;;;;;;3.30;1.70;;;17.80;99.90;;;;;;6225782;22;20008;-94
2022/06/27 08:44:22;;;;;;;3.85;1.98;;;17.80;99.90;;;;;;6225744;22;20016;-95
2022/06/27 08:46:51;;;;;;;3.33;1.90;;;17.90;99.90;;;;;;6226858;22;20007;-90
2022/06/27 08:49:17;;;;;;;4.28;1.90;;;17.90;99.90;;;;;;6225153;22;20467;-89
2022/06/27 08:51:44;;;;;;;3.30;1.70;;;17.90;99.90;;;;;;6249621;22;20066;-89
2022/06/27 08:54:09;;;;;;;;;;;17.90;99.90;;;;;;6250135;22;20024;-89
2022/06/27 08:56:35;;;;;;;3.22;1.90;;;17.90;99.90;;;;;;6224592;22;19926;-90
2022/06/27 08:59:01;;;;;;;3.80;2.33;;;17.90;99.90;;;;;;6224479;22;20016;-90
2022/06/27 09:01:30;;;;;;;3.10;1.55;;;17.90;99.90;;;;;;6225535;22;20016;-92
2022/06/27 09:04:09;;;;;;;3.80;1.88;;;17.90;99.90;;;;;;6225096;22;20019;-93
2022/06/27 09:06:55;;;;;;;4.00;1.90;;;17.90;99.90;;;;;;6250137;22;20051;-91
2022/06/27 09:09:24;;;;;;;3.78;1.80;;;17.90;99.90;;;;;;6223677;22;20011;-89
2022/06/27 09:11:50;;;;;;;4.10;2.22;;;18.00;99.90;;;;;;6224281;22;20016;-88
2022/06/27 09:14:31;;;;;;;;;;;18.00;99.90;;;;;;6226719;22;20298;-89
2022/06/27 09:16:59;;;;;;;3.53;1.95;;;18.00;99.90;;;;;;6228959;22;19915;-88
2022/06/27 09:19:54;;;;;;;3.42;1.80;;;18.10;99.90;;;;;;6225701;22;20015;-90
2022/06/27 09:22:23;;;;;;;4.72;2.00;;;18.10;99.90;;;;;;6249622;22;20019;-89
2022/06/27 09:25:04;;;;;;;4.93;2.10;;;18.10;99.90;;;;;;6250376;22;20015;-95
2022/06/27 09:27:39;;;;;;;4.43;2.30;;;18.10;99.90;;;;;;6224628;22;20065;-90
2022/06/27 09:30:26;;;;;;;3.90;2.10;;;18.10;99.90;;;;;;6250224;22;20016;-89
2022/06/27 09:32:59;;;;;;;4.10;2.10;;;18.20;99.90;;;;;;6224730;22;20073;-88
2022/06/27 09:35:26;;;;;;;4.32;2.30;;;18.20;99.90;;;;;;6224333;22;20024;-90
2022/06/27 09:37:57;;;;;;;4.50;2.30;;;18.20;99.90;;;;;;6249477;22;20102;-90
2022/06/27 09:40:25;;;;;;;3.92;2.22;;;18.30;99.90;;;;;;6249812;22;20019;-88
2022/06/27 09:42:56;;;;;;;3.67;2.13;;;18.30;99.90;;;;;;6224224;22;20441;-88
2022/06/27 09:45:27;;;;;;;3.60;1.95;;;18.30;99.90;;;;;;6224084;22;20051;-89
2022/06/27 09:47:58;;;;;;;3.70;2.10;;;18.20;99.90;;;;;;6224425;22;20066;-90
2022/06/27 09:50:27;;;;;;;3.53;1.80;;;18.20;99.90;;;;;;6224264;22;20104;-86
2022/06/27 09:52:54;;;;;;;3.65;1.73;;;18.20;99.90;;;;;;6249536;22;20452;-90
2022/06/27 09:55:23;;;;;;;4.10;1.73;;;18.20;99.90;;;;;;6274977;22;20020;-90
2022/06/27 09:57:50;;;;;;;3.55;1.90;;;18.20;99.90;;;;;;6249397;22;20514;-90
2022/06/27 10:00:19;;;;;;;4.40;1.90;;;18.20;99.90;;;;;;6275162;22;20018;-90
2022/06/27 10:02:46;;;;;;;3.70;2.40;;;18.20;99.90;;;;;;6223592;22;20465;-89
2022/06/27 10:05:14;;;;;;;3.92;2.05;;;18.20;99.90;;;;;;6224292;22;20011;-92
2022/06/27 10:07:43;;;;;;;4.85;1.80;;;18.20;99.90;;;;;;6226018;22;20024;-90
2022/06/27 10:10:09;;;;;;;4.38;2.15;;;18.20;99.90;;;;;;6226271;22;20110;-89
2022/06/27 10:12:37;;;;;;;3.83;2.00;;;18.30;99.90;;;;;;6226298;22;20030;-90
2022/06/27 10:15:14;;;;;;;3.17;1.42;;;18.30;99.90;;;;;;6226193;22;20043;-89
2022/06/27 10:17:48;;;;;;;3.40;1.70;;;18.30;99.90;;;;;;6225888;22;20027;-89
2022/06/27 10:20:21;;;;;;;3.78;1.88;;;18.30;99.90;;;;;;6226572;22;20437;-92
2022/06/27 10:23:18;;;;;;;3.55;1.75;;;18.40;99.90;;;;;;6226118;22;20015;-89
2022/06/27 10:25:48;;;;;;;4.32;2.08;;;18.40;99.90;;;;;;6226245;22;20015;-90
2022/06/27 10:28:15;;;;;;;3.72;2.13;;;18.40;99.90;;;;;;6251638;22;20027;-90
2022/06/27 10:30:42;;;;;;;3.78;1.83;;;18.40;99.90;;;;;;6226048;22;20314;-91
2022/06/27 10:33:26;;;;;;;4.22;1.85;;;18.50;99.90;;;;;;6226418;22;20016;-88
2022/06/27 10:36:15;;;;;;;3.72;1.83;;;18.40;99.90;;;;;;6226055;22;20022;-91
2022/06/27 10:38:54;;;;;;;3.38;1.67;;;18.50;99.90;;;;;;6250776;22;20081;-90
2022/06/27 10:41:23;;;;;;;3.35;1.67;;;18.50;99.90;;;;;;6226892;22;20103;-91
2022/06/27 10:43:49;;;;;;;3.75;1.88;;;18.60;99.90;;;;;;6225959;22;20027;-91
2022/06/27 10:46:15;;;;;;;4.07;2.00;;;18.60;99.90;;;;;;6225824;22;20058;-91
2022/06/27 10:48:48;;;;;;;3.95;1.95;;;18.60;99.90;;;;;;6225988;22;20020;-89
2022/06/27 10:51:29;;;;;;;4.55;2.33;;;18.60;99.90;;;;;;6251569;22;20019;-89
2022/06/27 10:54:04;;;;;;;4.68;2.30;;;18.70;99.90;;;;;;6251002;22;20016;-89
2022/06/27 10:56:34;;;;;;;4.40;2.17;;;18.70;99.90;;;;;;6225648;22;20098;-88
2022/06/27 10:59:26;;;;;;;5.00;2.38;;;18.70;99.90;;;;;;6225600;22;20062;-91
2022/06/27 11:07:08;;;;;;;3.33;1.98;;;18.80;99.90;;;;;;6246730;22;20024;-89
2022/06/27 11:09:44;;;;;;;5.00;2.63;;;18.80;99.90;;;;;;6195801;23;20020;-89
2022/06/27 11:12:11;;;;;;;4.57;2.60;;;18.80;99.90;;;;;;6195446;23;20024;-88
2022/06/27 11:14:51;;;;;;;5.03;2.50;;;18.90;99.90;;;;;;6195868;23;20019;-88
2022/06/27 11:17:37;;;;;;;5.35;2.40;;;18.90;99.90;;;;;;6195328;23;20091;-88
2022/06/27 11:20:14;;;;;;;5.27;2.67;;;19.00;99.90;;;;;;6195405;23;20018;-88
2022/06/27 11:23:01;;;;;;;5.35;2.67;;;19.00;99.90;;;;;;6195318;23;20016;-90
2022/06/27 11:25:29;;;;;;;4.93;3.00;;;19.00;99.90;;;;;;6195802;23;20016;-88
2022/06/27 11:34:00;;;;;;;5.95;2.92;;;19.10;99.90;;;;;;6243816;23;20030;-88
2022/06/27 11:36:26;;;;;;;5.30;2.70;;;19.10;99.90;;;;;;6192300;23;20412;-88
2022/06/27 11:38:52;;;;;;;4.53;2.33;;;19.00;99.90;;;;;;6194825;23;20338;-89
2022/06/27 11:41:29;;;;;;;4.82;2.78;;;19.10;99.90;;;;;;6195127;23;20027;-89
2022/06/27 11:44:07;;;;;;;4.55;2.55;;;19.00;99.90;;;;;;6219927;23;20016;-86
2022/06/27 11:46:49;;;;;;;5.45;3.03;;;19.10;99.90;;;;;;6219829;23;20020;-88
2022/06/27 11:49:28;;;;;;;4.97;2.92;;;19.00;99.90;;;;;;6220002;23;20023;-87
2022/06/27 11:52:16;;;;;;;6.17;2.40;;;19.10;99.90;;;;;;6220320;23;20016;-88
2022/06/27 11:54:56;;;;;;;4.32;2.20;;;19.00;99.90;;;;;;6194504;23;20012;-89
2022/06/27 11:57:57;;;;;;;4.80;2.40;;;19.00;99.90;;;;;;6224702;23;20407;-88
2022/06/27 12:00:26;;;;;;;5.82;2.42;;;19.00;99.90;;;;;;6193631;23;20091;-90
2022/06/27 12:02:58;;;;;;;5.43;2.47;;;18.90;99.90;;;;;;6194518;23;20055;-91
2022/06/27 12:05:24;;;;;;;5.00;2.55;;;19.00;99.90;;;;;;6195706;23;20078;-88
2022/06/27 12:07:54;;;;;;;;;;;19.00;99.90;;;;;;6203268;23;20021;-88
2022/06/27 12:10:40;;;;;;;4.80;2.50;;;18.90;99.90;;;;;;6198876;23;19916;-90
2022/06/27 12:13:31;;;;;;;4.53;2.25;;;18.90;99.90;;;;;;6189509;23;20021;-90
2022/06/27 12:16:00;;;;;;;4.80;2.65;;;18.90;99.90;;;;;;6187488;23;20028;-88
2022/06/27 12:18:46;;;;;;;5.93;2.33;;;18.90;99.90;;;;;;6210403;23;20025;-89
2022/06/27 12:21:12;;;;;;;5.07;2.47;;;18.90;99.90;;;;;;6188202;23;20052;-88
2022/06/27 12:23:38;;;;;;;5.45;2.53;;;19.00;99.90;;;;;;6189671;23;20389;-88
2022/06/27 12:26:05;;;;;;;5.07;2.50;;;19.00;99.90;;;;;;6213178;23;20043;-89
2022/06/27 12:28:31;;;;;;;4.55;2.53;;;19.00;99.90;;;;;;6189063;23;20039;-91
2022/06/27 12:30:56;;;;;;;5.95;2.67;;;19.00;99.90;;;;;;6214410;23;20013;-90
2022/06/27 12:33:22;;;;;;;4.88;2.67;;;19.00;99.90;;;;;;6187170;23;20450;-90
2022/06/27 12:35:48;;;;;;;4.85;2.45;;;18.90;99.90;;;;;;6188476;23;20013;-90
2022/06/27 12:47:40;;;;;;;5.45;2.85;;;19.00;99.90;;;;;;6289685;22;20090;-87
2022/06/27 12:50:06;;;;;;;5.30;2.60;;;19.00;99.90;;;;;;6251523;22;20028;-88
2022/06/27 12:52:32;;;;;;;4.40;2.25;;;19.00;99.90;;;;;;6224824;22;20045;-89
2022/06/27 12:54:58;;;;;;;4.75;2.80;;;19.00;99.90;;;;;;6224810;22;20020;-88
2022/06/27 12:57:23;;;;;;;5.10;2.50;;;19.00;99.90;;;;;;6249679;22;20019;-88
2022/06/27 13:00:45;;;;;;;5.75;2.92;;;19.00;99.90;;;;;;6224245;22;20047;-92
2022/06/27 14:38:23;;;;;;;5.95;3.60;;;18.60;99.90;;;;;;6214446;23;20025;-92
2022/06/27 14:40:49;;;;;;;7.10;4.03;;;18.60;99.90;;;;;;6164533;23;20021;-90
2022/06/27 14:43:14;;;;;;;6.13;3.55;;;18.60;99.90;;;;;;6163076;23;20017;-92
2022/06/27 15:45:55;;;;;;;4.32;2.28;;;18.60;99.90;;;;;;6247303;22;20020;-88
2022/06/27 15:48:24;;;;;;;4.38;2.13;;;18.60;99.90;;;;;;6188606;23;20099;-88
2022/06/27 15:50:58;;;;;;;4.03;2.08;;;18.60;99.90;;;;;;6191072;23;20027;-88
2022/06/27 15:53:28;;;;;;;5.00;2.53;;;18.60;99.90;;;;;;6190895;23;20055;-90
2022/06/27 15:55:54;;;;;;;5.50;2.70;;;18.60;99.90;;;;;;6189668;23;20095;-88
2022/06/27 16:03:38;;;;;;;5.75;2.83;;;18.60;99.90;;;;;;6201295;22;20481;-88
2022/06/27 16:06:05;;;;;;;6.28;3.85;;;18.60;99.90;;;;;;6190346;23;20055;-88
2022/06/27 16:08:32;;;;;;;5.40;2.95;;;18.60;99.90;;;;;;6190082;23;20017;-89
2022/06/27 16:34:28;;;;;;;8.45;4.00;;;18.40;99.90;;;;;;6188084;22;20033;-91
2022/06/27 16:36:55;;;;;;;6.43;3.63;;;18.40;99.90;;;;;;6181548;23;20029;-91
2022/06/27 16:39:21;;;;;;;6.72;3.47;;;18.40;99.90;;;;;;6158473;23;20013;-93
2022/06/27 16:44:31;;;;;;;6.18;3.38;;;18.40;99.90;;;;;;6184866;23;20058;-91
2022/06/27 16:46:57;;;;;;;6.78;3.55;;;18.40;99.90;;;;;;6160116;23;20439;-91
2022/06/27 16:49:23;;;;;;;6.70;4.05;;;18.40;99.90;;;;;;6184893;23;20049;-90
2022/06/27 16:51:49;;;;;;;7.20;4.20;;;18.40;99.90;;;;;;6160268;23;20021;-90
2022/06/27 16:54:15;;;;;;;2.17;0.98;;;18.40;99.90;;;;;;6160119;23;20012;-90
2022/06/27 16:56:41;;;;;;;1.45;0.80;;;18.30;99.90;;;;;;6160237;23;20021;-90
2022/06/27 16:59:07;;;;;;;1.88;0.65;;;18.00;99.90;;;;;;6160672;23;20339;-92
2022/06/27 17:01:33;;;;;;;1.27;0.60;;;17.80;99.90;;;;;;6174877;23;20028;-90
2022/06/27 17:03:59;;;;;;;3.38;0.70;;;17.60;99.90;;;;;;6188528;23;20021;-94
2022/06/27 17:06:24;;;;;;;2.38;0.70;;;17.30;99.90;;;;;;6161166;23;20021;-93
2022/06/27 17:08:50;;;;;;;2.95;0.70;;;17.10;99.90;;;;;;6161146;23;20039;-92
2022/06/27 17:11:17;;;;;;;2.17;0.88;;;16.90;99.90;;;;;;6161243;23;20014;-92
2022/06/27 17:13:45;;;;;;;3.50;0.60;;;16.70;99.90;;;;;;6160395;23;20017;-93
2022/06/27 17:16:11;;;;;;;2.10;0.93;;;16.60;99.90;;;;;;6160916;23;20021;-96
2022/06/27 17:18:37;;;;;;;1.85;0.75;;;16.40;99.90;;;;;;6185316;23;20049;-95
2022/06/27 17:21:03;;;;;;;0.90;0.60;;;16.30;99.90;;;;;;6160161;23;20049;-92
2022/06/27 17:23:28;;;;;;;2.10;0.82;;;16.20;99.90;;;;;;6160581;23;20044;-90
2022/06/27 17:25:54;;;;;;;2.22;0.95;;;16.10;99.90;;;;;;6160128;23;20017;-92
2022/06/27 17:28:20;;;;;;;1.85;0.90;;;16.10;99.90;;;;;;6160710;23;20324;-94
2022/06/27 17:30:46;;;;;;;2.60;0.80;;;16.00;99.90;;;;;;6159986;23;20025;-96
2022/06/27 17:33:12;;;;;;;1.88;0.90;;;16.00;99.90;;;;;;6160865;23;20009;-96
2022/06/27 17:35:43;;;;;;;1.60;0.80;;;16.00;99.90;;;;;;6186934;23;20017;-93
2022/06/27 17:38:09;;;;;;;2.33;0.80;;;16.00;99.90;;;;;;6160162;23;20021;-96
2022/06/27 17:40:34;;;;;;;2.25;0.80;;;16.00;99.90;;;;;;6190658;23;20021;-95
2022/06/27 17:43:00;;;;;;;1.80;0.90;;;16.00;99.90;;;;;;6162532;23;20071;-90
2022/06/27 17:45:26;;;;;;;2.05;0.90;;;16.10;99.90;;;;;;6160153;23;20024;-91
2022/06/27 17:47:57;;;;;;;2.33;1.05;;;16.10;99.90;;;;;;6160126;23;20092;-92
2022/06/27 17:50:23;;;;;;;2.20;1.00;;;16.10;99.90;;;;;;6159935;23;20024;-91
2022/06/27 17:52:49;;;;;;;3.05;0.80;;;16.10;99.90;;;;;;6184582;23;20017;-91
2022/06/27 17:55:16;;;;;;;2.42;0.95;;;16.10;99.90;;;;;;6159237;23;20342;-92
2022/06/27 18:08:03;;;;;;;2.25;0.80;;;16.10;99.90;;;;;;6185341;22;20021;-93
2022/06/27 18:10:30;;;;;;;2.25;0.90;;;16.10;99.90;;;;;;6159905;23;20407;-92
2022/06/27 18:14:03;;;;;;;;;;;;;;;;;;;;;
2022/06/27 18:44:13;;;;;;;1.85;0.60;;;15.80;99.90;;;;;;6187080;22;20021;-92
2022/06/27 18:46:40;;;;;;;1.38;0.60;;;15.80;99.90;;;;;;6137232;23;20021;-89
2022/06/27 18:49:06;;;;;;;2.65;0.70;;;15.80;99.90;;;;;;6136494;23;20045;-91
2022/06/27 18:51:33;;;;;;;;;;;15.80;99.90;;;;;;6136981;23;20024;-91
2022/06/27 18:53:59;;;;;;;1.30;0.55;;;15.70;99.90;;;;;;6135237;23;19912;-92
2022/06/27 18:56:27;;;;;;;2.05;0.80;;;15.70;99.90;;;;;;6136748;23;20052;-92
2022/06/27 18:58:56;;;;;;;2.80;0.70;;;15.70;99.90;;;;;;6136580;23;20013;-92
2022/06/27 19:06:41;;;;;;;1.77;0.60;;;15.70;99.90;;;;;;6217447;22;20016;-94
2022/06/27 19:09:06;;;;;;;3.42;0.60;;;15.70;99.90;;;;;;6166106;23;20020;-93
2022/06/27 19:42:38;;;;;;;2.13;0.88;;;15.80;99.90;;;;;;6192672;22;20025;-92
2022/06/27 19:45:07;;;;;;;2.67;0.80;;;15.80;99.90;;;;;;6190811;23;20350;-92
2022/06/27 19:47:38;;;;;;;2.08;0.90;;;15.80;99.90;;;;;;6190582;23;20013;-88
2022/06/27 19:50:05;;;;;;;2.40;1.00;;;15.70;99.90;;;;;;6215540;23;20027;-93
2022/06/27 19:52:30;;;;;;;2.28;0.90;;;15.70;99.90;;;;;;6190268;23;20047;-93
2022/06/27 19:54:58;;;;;;;2.13;0.75;;;15.70;99.90;;;;;;6190510;23;20016;-93
2022/06/27 19:57:28;;;;;;;1.63;0.60;;;15.70;99.90;;;;;;6208853;23;20004;-89
2022/06/27 19:59:54;;;;;;;1.58;0.70;;;15.70;99.90;;;;;;6237278;23;20068;-89
2022/06/27 20:02:20;;;;;;;1.63;0.80;;;15.70;99.90;;;;;;6191617;23;20044;-92
2022/06/27 20:04:46;;;;;;;2.67;1.05;;;15.70;99.90;;;;;;6194445;23;20020;-90
2022/06/27 20:07:28;;;;;;;3.40;0.98;;;15.70;99.90;;;;;;6191297;23;20431;-94
2022/06/27 20:10:04;;;;;;;2.92;1.10;;;15.70;99.90;;;;;;6191172;23;20103;-93
2022/06/27 20:12:31;;;;;;;3.88;1.38;;;15.70;99.90;;;;;;6192122;23;20013;-95
2022/06/27 20:14:59;;;;;;;3.05;0.82;;;15.70;99.90;;;;;;6216435;23;20434;-89
2022/06/27 20:17:33;;;;;;;1.42;0.80;;;15.80;99.90;;;;;;6216805;23;20146;-93
2022/06/27 20:19:59;;;;;;;4.53;1.20;;;15.70;99.90;;;;;;6190474;23;20017;-93
2022/06/27 20:22:27;;;;;;;2.60;1.10;;;15.80;99.90;;;;;;6190351;23;20055;-90
2022/06/27 20:24:53;;;;;;;2.65;1.05;;;15.70;99.90;;;;;;6190661;23;20021;-93
2022/06/27 20:27:20;;;;;;;;;;;15.80;99.90;;;;;;6190915;23;20009;-94
2022/06/27 20:29:46;;;;;;;3.00;1.40;;;15.80;99.90;;;;;;6190270;23;19916;-93
2022/06/27 20:32:11;;;;;;;2.10;0.98;;;15.90;99.90;;;;;;6191157;23;20298;-92
2022/06/27 20:34:40;;;;;;;4.00;1.50;;;15.90;99.90;;;;;;6198256;23;20040;-94
2022/06/27 20:37:06;;;;;;;2.58;1.35;;;15.80;99.90;;;;;;6216936;23;20043;-92
2022/06/27 20:39:33;;;;;;;3.20;1.50;;;15.90;99.90;;;;;;6207986;23;20013;-91
2022/06/27 20:42:00;;;;;;;3.63;1.48;;;15.90;99.90;;;;;;6190977;23;20023;-90
2022/06/27 20:44:26;;;;;;;7.53;1.48;;;15.90;99.90;;;;;;6190603;23;20020;-91
2022/06/27 20:46:52;;;;;;;2.72;1.33;;;15.90;99.90;;;;;;6190597;23;20012;-91
2022/06/27 20:49:17;;;;;;;3.38;1.63;;;15.90;99.90;;;;;;6214238;23;20108;-92
2022/06/27 20:51:43;;;;;;;3.97;1.55;;;15.90;99.90;;;;;;6188361;23;20095;-93